Observations for Trim Market St
| Time | AQI | Temp °C | Hum % | Pres Pa | CO μg/m³ | H₂S μg/m³ | NO μg/m³ | NO₂ μg/m³ | O₃ μg/m³ | SO₂ μg/m³ | PM1 μg/m³ | PM2.5 μg/m³ | PM10 μg/m³ |
|---|---|---|---|---|---|---|---|---|---|---|---|---|---|
| Sunday 23 August 2026 | |||||||||||||
| 22:53 | 3 | 13.3 | 65 | 57,520 | 0.34 | 0 | 2.08 | 18.73 | 41.56 | 0 | 1.43 | 3.8 | 5.55 |
| 22:51 | 3 | 13.4 | 65 | 57,537 | 0.34 | 0 | 2.58 | 13.28 | 47.4 | 0 | 0.71 | 2.81 | 4.23 |
| 22:45 | 3 | 13.5 | 64 | 57,588 | 0.33 | 0 | 1.92 | 17.03 | 47.15 | 0 | 0.71 | 2.83 | 4.89 |
| 22:40 | 3 | 13.6 | 64 | 57,607 | 0.33 | 0 | 1.68 | 11.83 | 55.59 | 0 | 0.71 | 2.35 | 4.22 |
| 22:39 | 3 | 13.7 | 64 | 57,611 | 0.31 | 0 | 1.52 | 11.37 | 54.48 | 0 | 0.71 | 3.34 | 4.88 |
| 22:38 | 3 | 13.6 | 64 | 57,614 | 0.33 | 0 | 1.67 | 12.28 | 51.66 | 0 | 0.71 | 2.85 | 4.88 |
| 22:37 | 3 | 13.7 | 64 | 57,619 | 0.33 | 0 | 1.72 | 11.05 | 58 | 0 | 1.43 | 3.34 | 6.2 |
| 22:36 | 3 | 13.7 | 64 | 57,624 | 0.33 | 0 | 1.81 | 10.6 | 59.9 | 0 | 0.71 | 2.85 | 4.21 |
| 22:35 | 3 | 13.7 | 64 | 57,626 | 0.34 | 0 | 1.81 | 12.76 | 54.69 | 0 | 1.43 | 2.86 | 4.21 |
| 22:34 | 3 | 13.7 | 64 | 57,629 | 0.36 | 0 | 1.91 | 12.49 | 55.25 | 0 | 0.71 | 2.86 | 4.21 |
| 22:33 | 3 | 13.8 | 64 | 57,631 | 0.44 | 0 | 1.87 | 13.68 | 51.83 | 0 | 0.71 | 2.37 | 4.87 |
| 22:32 | 3 | 13.8 | 64 | 57,638 | 0.65 | 0 | 1.85 | 15.55 | 52.63 | 0 | 0.71 | 2.86 | 4.87 |
| 22:31 | 3 | 13.8 | 64 | 57,644 | 0.32 | 0 | 1.79 | 14.49 | 51.15 | 0 | 0.71 | 3.36 | 4.87 |
| 22:30 | 3 | 13.8 | 64 | 57,649 | 0.39 | 0 | 1.84 | 16.63 | 49.76 | 0 | 1.43 | 3.86 | 5.53 |
| 22:29 | 3 | 13.8 | 63 | 57,655 | 0.49 | 0 | 1.83 | 20.27 | 43.49 | 0 | 3.56 | 4.85 | 6.86 |
| 22:28 | 3 | 13.8 | 63 | 57,660 | 0.32 | 0 | 1.67 | 11.49 | 61.6 | 0 | 0.71 | 2.87 | 4.2 |
| 22:27 | 3 | 13.9 | 63 | 57,663 | 0.3 | 0 | 1.62 | 9.4 | 70.24 | 0 | 0 | 1.88 | 2.86 |
| 22:24 | 3 | 13.9 | 63 | 57,667 | 0.29 | 0 | 1.75 | 11.13 | 64.16 | 0 | 0.71 | 2.38 | 3.53 |
| 22:23 | 3 | 14 | 63 | 57,674 | 0.3 | 0 | 1.74 | 10.79 | 65.77 | 0 | 0.71 | 2.88 | 4.19 |
| 22:22 | 3 | 14 | 63 | 57,678 | 0.29 | 0 | 1.76 | 11.06 | 64.4 | 0 | 0.71 | 2.39 | 3.52 |